Portada
METAR-TAF:

METAR-TAF

Aeroports :

Iekaterinburg, Rússia

latitud: 56-50N, longitud: 060-38E, altitud: 237 m

Observació

L'informe es va fer fa 36 minuts, a les 18:00 UTC
Vent 6 kt del Nord/Nord-Est, variant entre Nord i Est/Nord-Est
Temperatura -15°C
Humitat 78%
Pressió 1010 hPa
Visibilitat: 8000 m
Núvols disperses a una alçada de 3300 ft
neu

METAR: USSS 281800Z 03003MPS 360V060 8000 -SN SCT033 M15/M18 Q1010 R08R/420350 NOSIG RMK QFE737/0983

Hora: 23:36 (18:36 UTC)

Pronòstic

L'informe es va fer fa 1 hora i 43 minuts, a les 16:53 UTC
Pronòstic vàlid del 28 a les 18 UTC al 01 a les 18 UTC
Vent 6 kt del Nord-Est amb ràfegues de 16 kt
Visibilitat: 3100 m
Cel ennuvolat a una alçada de 1100 ft, Cumulonimbus.
xàfecs de neu
Evolucionant progressivament
l' 01 a les 05 UTC al 01 a les 07 UTC
Vent 6 kt del Nord/Nord-Est amb ràfegues de 25 kt

TAF: USSS 281653Z 2818/0118 05003G08MPS 3100 -SHSN BKN011CB BECMG 0105/0107 02003G13MPS

Observacions i pronòstics meteorològics de més de 4000 aeroports (METAR i TAF).

Les estacions disponibles són els punts grocs i vermells al mapa.

Posi el ratolí al punt desitjat per veure el nom de l'estació.

Feu clic per veure les observacions i els pronòstics meteorològics.

Per canviar el mapa: feu clic els botons verds amb una creu de color negre per apropar; al botó verd amb un guió per allunyar la imatge; o en les fletxes verdes per a mapes adjacents.


METAR-TAF: